sensor_id;sensor_type;location;lat;lon;timestamp;pressure;altitude;pressure_sealevel;temperature;humidity
11172;BME280;5642;50.830;12.082;2022-10-16T00:02:14;99156.31;;;19.58;52.63
11172;BME280;5642;50.830;12.082;2022-10-16T00:04:40;99110.22;;;19.34;52.38
11172;BME280;5642;50.830;12.082;2022-10-16T00:07:10;99176.38;;;19.75;52.60
11172;BME280;5642;50.830;12.082;2022-10-16T00:09:36;99107.56;;;19.34;52.49
11172;BME280;5642;50.830;12.082;2022-10-16T00:12:03;99123.72;;;19.43;52.42
11172;BME280;5642;50.830;12.082;2022-10-16T00:14:30;99097.69;;;19.36;52.70
11172;BME280;5642;50.830;12.082;2022-10-16T00:16:56;99165.88;;;19.84;52.53
11172;BME280;5642;50.830;12.082;2022-10-16T00:19:30;99144.34;;;19.76;52.54
11172;BME280;5642;50.830;12.082;2022-10-16T00:21:57;99137.56;;;19.72;52.40
11172;BME280;5642;50.830;12.082;2022-10-16T00:24:24;99114.56;;;19.60;52.44
11172;BME280;5642;50.830;12.082;2022-10-16T00:26:50;99114.22;;;19.65;52.37
11172;BME280;5642;50.830;12.082;2022-10-16T00:29:17;99097.13;;;19.56;52.48
11172;BME280;5642;50.830;12.082;2022-10-16T00:31:43;99120.88;;;19.70;52.34
11172;BME280;5642;50.830;12.082;2022-10-16T00:34:19;99136.03;;;19.81;52.34
11172;BME280;5642;50.830;12.082;2022-10-16T00:36:45;99123.44;;;19.72;52.52
11172;BME280;5642;50.830;12.082;2022-10-16T00:39:11;99111.56;;;19.65;52.38
11172;BME280;5642;50.830;12.082;2022-10-16T00:41:37;99166.22;;;20.04;52.55
11172;BME280;5642;50.830;12.082;2022-10-16T00:47:22;99166.91;;;19.94;52.37
11172;BME280;5642;50.830;12.082;2022-10-16T00:49:52;99109.66;;;19.54;52.54
11172;BME280;5642;50.830;12.082;2022-10-16T00:52:19;99143.34;;;19.66;52.35
11172;BME280;5642;50.830;12.082;2022-10-16T00:54:46;99103.84;;;19.49;52.59
11172;BME280;5642;50.830;12.082;2022-10-16T00:57:15;99131.56;;;19.58;52.58
11172;BME280;5642;50.830;12.082;2022-10-16T00:59:42;99150.34;;;19.67;52.63
11172;BME280;5642;50.830;12.082;2022-10-16T01:02:13;99091.13;;;19.29;52.69
11172;BME280;5642;50.830;12.082;2022-10-16T01:04:52;99153.16;;;19.53;52.39
11172;BME280;5642;50.830;12.082;2022-10-16T01:16:31;99170.78;;;19.29;52.53
11172;BME280;5642;50.830;12.082;2022-10-16T01:19:32;99199.47;;;19.36;52.51
11172;BME280;5642;50.830;12.082;2022-10-16T01:22:04;99192.91;;;19.29;52.80
11172;BME280;5642;50.830;12.082;2022-10-16T01:35:14;99205.34;;;19.16;52.88
11172;BME280;5642;50.830;12.082;2022-10-16T01:37:48;99195.59;;;19.04;53.00
11172;BME280;5642;50.830;12.082;2022-10-16T01:40:24;99221.25;;;19.16;53.02
11172;BME280;5642;50.830;12.082;2022-10-16T01:42:59;99208.09;;;19.14;52.93
11172;BME280;5642;50.830;12.082;2022-10-16T01:45:28;99136.22;;;18.80;52.88
11172;BME280;5642;50.830;12.082;2022-10-16T01:48:06;99139.22;;;18.75;52.96
11172;BME280;5642;50.830;12.082;2022-10-16T01:50:37;99199.78;;;19.19;52.80
11172;BME280;5642;50.830;12.082;2022-10-16T01:53:07;99167.53;;;19.00;52.81
11172;BME280;5642;50.830;12.082;2022-10-16T01:55:38;99175.91;;;19.06;52.94
11172;BME280;5642;50.830;12.082;2022-10-16T01:58:14;99132.41;;;18.71;53.06
11172;BME280;5642;50.830;12.082;2022-10-16T02:00:44;99121.88;;;18.57;52.88
11172;BME280;5642;50.830;12.082;2022-10-16T02:03:13;99191.66;;;18.97;53.00
11172;BME280;5642;50.830;12.082;2022-10-16T02:05:45;99170.72;;;18.80;53.02
11172;BME280;5642;50.830;12.082;2022-10-16T02:08:12;99153.44;;;18.61;53.06
11172;BME280;5642;50.830;12.082;2022-10-16T02:10:43;99127.78;;;18.48;52.97
11172;BME280;5642;50.830;12.082;2022-10-16T02:13:13;99176.34;;;18.75;52.97
11172;BME280;5642;50.830;12.082;2022-10-16T02:15:41;99205.53;;;18.88;52.92
11172;BME280;5642;50.830;12.082;2022-10-16T02:18:09;99219.78;;;18.87;53.07
11172;BME280;5642;50.830;12.082;2022-10-16T02:20:43;99173.25;;;18.56;52.92
11172;BME280;5642;50.830;12.082;2022-10-16T02:23:17;99220.19;;;18.81;53.08
11172;BME280;5642;50.830;12.082;2022-10-16T02:25:47;99207.34;;;18.74;52.98
11172;BME280;5642;50.830;12.082;2022-10-16T02:28:22;99158.31;;;18.40;53.20
11172;BME280;5642;50.830;12.082;2022-10-16T02:31:04;99213.38;;;18.64;53.09
11172;BME280;5642;50.830;12.082;2022-10-16T02:33:35;99175.41;;;18.36;53.13
11172;BME280;5642;50.830;12.082;2022-10-16T02:36:04;99212.13;;;18.55;53.07
11172;BME280;5642;50.830;12.082;2022-10-16T02:38:33;99184.66;;;18.44;53.23
11172;BME280;5642;50.830;12.082;2022-10-16T02:41:00;99202.13;;;18.60;53.42
11172;BME280;5642;50.830;12.082;2022-10-16T02:43:26;99227.72;;;18.74;53.26
11172;BME280;5642;50.830;12.082;2022-10-16T02:46:02;99204.03;;;18.71;53.27
11172;BME280;5642;50.830;12.082;2022-10-16T02:48:29;99188.09;;;18.58;53.37
11172;BME280;5642;50.830;12.082;2022-10-16T02:50:55;99212.94;;;18.70;53.23
11172;BME280;5642;50.830;12.082;2022-10-16T02:53:21;99218.06;;;18.73;53.10
11172;BME280;5642;50.830;12.082;2022-10-16T02:55:47;99178.72;;;18.53;53.23
11172;BME280;5642;50.830;12.082;2022-10-16T02:58:19;99223.88;;;18.78;53.11
11172;BME280;5642;50.830;12.082;2022-10-16T03:00:45;99211.38;;;18.67;53.52
11172;BME280;5642;50.830;12.082;2022-10-16T03:03:22;99195.50;;;18.53;53.29
11172;BME280;5642;50.830;12.082;2022-10-16T03:05:48;99238.75;;;18.68;53.37
11172;BME280;5642;50.830;12.082;2022-10-16T03:08:14;99200.47;;;18.45;53.30
11172;BME280;5642;50.830;12.082;2022-10-16T03:10:41;99232.88;;;18.63;53.40
11172;BME280;5642;50.830;12.082;2022-10-16T03:13:07;99219.38;;;18.53;53.35
11172;BME280;5642;50.830;12.082;2022-10-16T03:15:33;99186.53;;;18.29;53.37
11172;BME280;5642;50.830;12.082;2022-10-16T03:18:00;99224.53;;;18.42;53.36
11172;BME280;5642;50.830;12.082;2022-10-16T03:20:26;99176.28;;;18.10;53.39
11172;BME280;5642;50.830;12.082;2022-10-16T03:22:52;99238.22;;;18.49;53.46
11172;BME280;5642;50.830;12.082;2022-10-16T03:25:18;99163.13;;;18.09;53.40
11172;BME280;5642;50.830;12.082;2022-10-16T03:27:44;99174.09;;;18.17;53.37
11172;BME280;5642;50.830;12.082;2022-10-16T03:30:11;99158.88;;;18.06;53.48
11172;BME280;5642;50.830;12.082;2022-10-16T03:32:38;99149.09;;;17.94;53.30
11172;BME280;5642;50.830;12.082;2022-10-16T03:35:05;99235.44;;;18.37;53.53
11172;BME280;5642;50.830;12.082;2022-10-16T03:37:31;99215.78;;;18.27;53.46
11172;BME280;5642;50.830;12.082;2022-10-16T03:39:57;99173.69;;;17.96;53.56
11172;BME280;5642;50.830;12.082;2022-10-16T03:42:24;99186.22;;;18.07;53.55
11172;BME280;5642;50.830;12.082;2022-10-16T03:44:50;99206.94;;;18.14;53.53
11172;BME280;5642;50.830;12.082;2022-10-16T03:47:16;99216.19;;;18.21;53.55
11172;BME280;5642;50.830;12.082;2022-10-16T03:49:48;99185.28;;;18.08;53.39
11172;BME280;5642;50.830;12.082;2022-10-16T03:52:14;99192.66;;;18.17;53.63
11172;BME280;5642;50.830;12.082;2022-10-16T03:54:40;99215.78;;;18.27;53.59
11172;BME280;5642;50.830;12.082;2022-10-16T03:57:06;99215.78;;;18.27;53.61
11172;BME280;5642;50.830;12.082;2022-10-16T03:59:33;99236.41;;;18.36;53.67
11172;BME280;5642;50.830;12.082;2022-10-16T04:01:59;99231.94;;;18.37;53.73
11172;BME280;5642;50.830;12.082;2022-10-16T04:04:25;99233.75;;;18.36;53.93
11172;BME280;5642;50.830;12.082;2022-10-16T04:06:51;99226.84;;;18.34;53.81
11172;BME280;5642;50.830;12.082;2022-10-16T04:09:18;99225.69;;;18.38;53.78
11172;BME280;5642;50.830;12.082;2022-10-16T04:11:44;99221.84;;;18.29;53.77
11172;BME280;5642;50.830;12.082;2022-10-16T04:14:11;99237.56;;;18.32;53.77
11172;BME280;5642;50.830;12.082;2022-10-16T04:16:43;99243.72;;;18.33;53.76
11172;BME280;5642;50.830;12.082;2022-10-16T04:19:10;99237.75;;;18.29;53.81
11172;BME280;5642;50.830;12.082;2022-10-16T04:21:37;99212.09;;;18.03;53.66
11172;BME280;5642;50.830;12.082;2022-10-16T04:24:03;99251.41;;;18.23;53.83
11172;BME280;5642;50.830;12.082;2022-10-16T04:26:30;99238.00;;;18.12;53.83
11172;BME280;5642;50.830;12.082;2022-10-16T04:28:56;99251.06;;;18.15;53.83
11172;BME280;5642;50.830;12.082;2022-10-16T04:31:22;99265.25;;;18.14;53.77
11172;BME280;5642;50.830;12.082;2022-10-16T04:33:48;99250.50;;;18.10;53.87
11172;BME280;5642;50.830;12.082;2022-10-16T04:36:14;99209.22;;;17.79;53.76
11172;BME280;5642;50.830;12.082;2022-10-16T04:38:40;99187.50;;;17.60;53.79
11172;BME280;5642;50.830;12.082;2022-10-16T04:41:07;99182.28;;;17.58;53.84
11172;BME280;5642;50.830;12.082;2022-10-16T04:43:34;99262.72;;;17.98;53.83
11172;BME280;5642;50.830;12.082;2022-10-16T04:46:00;99218.16;;;17.64;53.86
11172;BME280;5642;50.830;12.082;2022-10-16T04:48:27;99200.34;;;17.52;53.94
11172;BME280;5642;50.830;12.082;2022-10-16T04:50:53;99281.28;;;17.98;53.84
11172;BME280;5642;50.830;12.082;2022-10-16T04:53:19;99250.59;;;17.82;53.90
11172;BME280;5642;50.830;12.082;2022-10-16T04:55:45;99284.34;;;17.92;53.90
11172;BME280;5642;50.830;12.082;2022-10-16T04:58:12;99277.16;;;17.80;53.90
11172;BME280;5642;50.830;12.082;2022-10-16T05:00:38;99294.94;;;17.78;53.77
11172;BME280;5642;50.830;12.082;2022-10-16T05:03:05;99259.38;;;17.54;53.93
11172;BME280;5642;50.830;12.082;2022-10-16T05:05:36;99316.34;;;17.89;54.12
11172;BME280;5642;50.830;12.082;2022-10-16T05:08:02;99280.47;;;17.70;54.14
11172;BME280;5642;50.830;12.082;2022-10-16T05:10:28;99317.06;;;17.91;54.18
11172;BME280;5642;50.830;12.082;2022-10-16T05:12:55;99312.44;;;17.95;54.16
11172;BME280;5642;50.830;12.082;2022-10-16T05:15:24;99296.19;;;17.87;54.29
11172;BME280;5642;50.830;12.082;2022-10-16T05:17:54;99266.66;;;17.79;54.17
11172;BME280;5642;50.830;12.082;2022-10-16T05:20:20;99303.06;;;18.04;54.21
11172;BME280;5642;50.830;12.082;2022-10-16T05:22:47;99312.03;;;18.15;54.37
11172;BME280;5642;50.830;12.082;2022-10-16T05:25:20;99260.47;;;17.92;54.27
11172;BME280;5642;50.830;12.082;2022-10-16T05:27:50;99307.00;;;18.25;54.66
11172;BME280;5642;50.830;12.082;2022-10-16T05:30:17;99242.69;;;17.94;54.39
11172;BME280;5642;50.830;12.082;2022-10-16T05:32:49;99300.22;;;18.33;54.06
11172;BME280;5642;50.830;12.082;2022-10-16T05:35:17;99310.34;;;18.41;54.42
11172;BME280;5642;50.830;12.082;2022-10-16T05:37:43;99259.00;;;18.15;54.44
11172;BME280;5642;50.830;12.082;2022-10-16T05:40:10;99311.00;;;18.45;54.54
11172;BME280;5642;50.830;12.082;2022-10-16T05:42:44;99294.41;;;18.41;54.30
11172;BME280;5642;50.830;12.082;2022-10-16T05:45:18;99252.44;;;18.21;54.44
11172;BME280;5642;50.830;12.082;2022-10-16T05:47:44;99242.25;;;18.15;54.20
11172;BME280;5642;50.830;12.082;2022-10-16T05:50:10;99318.00;;;18.60;54.50
11172;BME280;5642;50.830;12.082;2022-10-16T05:52:39;99331.38;;;18.71;54.40
11172;BME280;5642;50.830;12.082;2022-10-16T05:55:05;99278.50;;;18.41;54.42
11172;BME280;5642;50.830;12.082;2022-10-16T05:57:31;99300.56;;;18.56;54.39
11172;BME280;5642;50.830;12.082;2022-10-16T05:59:57;99337.59;;;18.84;54.51
11172;BME280;5642;50.830;12.082;2022-10-16T06:02:23;99341.66;;;18.90;54.35
11172;BME280;5642;50.830;12.082;2022-10-16T06:04:51;99285.84;;;18.64;54.44
11172;BME280;5642;50.830;12.082;2022-10-16T06:07:19;99312.34;;;18.91;54.31
11172;BME280;5642;50.830;12.082;2022-10-16T06:09:49;99325.19;;;18.97;54.43
11172;BME280;5642;50.830;12.082;2022-10-16T06:12:19;99259.63;;;18.60;54.22
11172;BME280;5642;50.830;12.082;2022-10-16T06:15:20;99295.75;;;18.75;54.49
11172;BME280;5642;50.830;12.082;2022-10-16T06:17:57;99349.84;;;19.12;54.54
11172;BME280;5642;50.830;12.082;2022-10-16T06:20:24;99295.97;;;18.85;54.68
11172;BME280;5642;50.830;12.082;2022-10-16T06:23:03;99331.50;;;19.09;54.64
11172;BME280;5642;50.830;12.082;2022-10-16T06:25:31;99310.69;;;19.03;54.49
11172;BME280;5642;50.830;12.082;2022-10-16T06:28:05;99305.66;;;18.98;54.34
11172;BME280;5642;50.830;12.082;2022-10-16T06:30:31;99314.28;;;19.02;54.55
11172;BME280;5642;50.830;12.082;2022-10-16T06:32:57;99353.19;;;19.28;54.58
11172;BME280;5642;50.830;12.082;2022-10-16T06:35:39;99360.00;;;19.32;54.54
11172;BME280;5642;50.830;12.082;2022-10-16T06:38:16;99319.94;;;19.10;54.33
11172;BME280;5642;50.830;12.082;2022-10-16T06:40:42;99343.41;;;19.29;54.56
11172;BME280;5642;50.830;12.082;2022-10-16T06:43:09;99328.53;;;19.26;54.39
11172;BME280;5642;50.830;12.082;2022-10-16T06:45:41;99370.78;;;19.56;54.67
11172;BME280;5642;50.830;12.082;2022-10-16T06:48:07;99410.44;;;19.84;54.72
11172;BME280;5642;50.830;12.082;2022-10-16T06:50:33;99391.31;;;19.79;54.61
11172;BME280;5642;50.830;12.082;2022-10-16T06:53:03;99341.13;;;19.49;54.82
11172;BME280;5642;50.830;12.082;2022-10-16T06:55:29;99354.19;;;19.65;54.44
11172;BME280;5642;50.830;12.082;2022-10-16T06:57:58;99339.97;;;19.66;54.48
11172;BME280;5642;50.830;12.082;2022-10-16T07:03:46;99349.19;;;19.86;54.49
11172;BME280;5642;50.830;12.082;2022-10-16T07:06:17;99334.84;;;19.88;54.77
11172;BME280;5642;50.830;12.082;2022-10-16T07:08:47;99391.03;;;20.33;54.77
11172;BME280;5642;50.830;12.082;2022-10-16T07:11:20;99395.72;;;20.42;54.92
11172;BME280;5642;50.830;12.082;2022-10-16T07:13:49;99381.84;;;20.50;54.72
11172;BME280;5642;50.830;12.082;2022-10-16T07:16:21;99339.63;;;20.32;54.78
11172;BME280;5642;50.830;12.082;2022-10-16T07:18:47;99353.53;;;20.49;54.96
11172;BME280;5642;50.830;12.082;2022-10-16T07:21:17;99404.19;;;20.84;54.59
11172;BME280;5642;50.830;12.082;2022-10-16T07:23:52;99377.56;;;20.84;54.58
11172;BME280;5642;50.830;12.082;2022-10-16T07:26:19;99345.22;;;20.77;54.77
11172;BME280;5642;50.830;12.082;2022-10-16T07:28:46;99386.59;;;21.05;54.59
11172;BME280;5642;50.830;12.082;2022-10-16T07:31:15;99328.75;;;20.72;54.58
11172;BME280;5642;50.830;12.082;2022-10-16T07:33:42;99352.63;;;20.85;54.46
11172;BME280;5642;50.830;12.082;2022-10-16T07:36:11;99366.03;;;20.96;54.57
11172;BME280;5642;50.830;12.082;2022-10-16T07:38:40;99379.72;;;21.02;54.30
11172;BME280;5642;50.830;12.082;2022-10-16T07:41:14;99429.16;;;21.41;54.53
11172;BME280;5642;50.830;12.082;2022-10-16T07:43:52;99365.09;;;21.08;54.41
11172;BME280;5642;50.830;12.082;2022-10-16T07:46:27;99436.22;;;21.54;54.39
11172;BME280;5642;50.830;12.082;2022-10-16T07:48:55;99387.22;;;21.32;54.38
11172;BME280;5642;50.830;12.082;2022-10-16T07:51:23;99421.25;;;21.64;54.34
11172;BME280;5642;50.830;12.082;2022-10-16T07:53:50;99367.88;;;21.41;54.37
11172;BME280;5642;50.830;12.082;2022-10-16T07:56:18;99434.63;;;21.86;54.41
11172;BME280;5642;50.830;12.082;2022-10-16T07:58:51;99371.91;;;21.58;54.44
11172;BME280;5642;50.830;12.082;2022-10-16T08:01:18;99401.63;;;21.76;54.30
11172;BME280;5642;50.830;12.082;2022-10-16T08:03:49;99364.03;;;21.57;54.46
11172;BME280;5642;50.830;12.082;2022-10-16T08:06:17;99369.97;;;21.60;54.42
11172;BME280;5642;50.830;12.082;2022-10-16T08:08:47;99432.25;;;22.05;53.98
11172;BME280;5642;50.830;12.082;2022-10-16T08:11:13;99422.06;;;21.99;54.36
11172;BME280;5642;50.830;12.082;2022-10-16T08:13:43;99435.38;;;22.10;54.30
11172;BME280;5642;50.830;12.082;2022-10-16T08:16:17;99429.72;;;22.15;54.21
11172;BME280;5642;50.830;12.082;2022-10-16T08:18:43;99370.38;;;21.78;53.99
11172;BME280;5642;50.830;12.082;2022-10-16T08:21:18;99449.72;;;22.20;54.05
11172;BME280;5642;50.830;12.082;2022-10-16T08:23:53;99375.22;;;21.84;53.98
11172;BME280;5642;50.830;12.082;2022-10-16T08:26:29;99376.06;;;21.84;54.08
11172;BME280;5642;50.830;12.082;2022-10-16T08:29:00;99431.25;;;22.17;54.21
11172;BME280;5642;50.830;12.082;2022-10-16T08:31:28;99374.47;;;21.82;54.24
11172;BME280;5642;50.830;12.082;2022-10-16T08:33:55;99447.53;;;22.25;54.15
11172;BME280;5642;50.830;12.082;2022-10-16T08:36:21;99398.38;;;21.95;54.16
11172;BME280;5642;50.830;12.082;2022-10-16T08:38:49;99406.91;;;22.00;54.01
11172;BME280;5642;50.830;12.082;2022-10-16T08:41:21;99464.03;;;22.31;54.08
11172;BME280;5642;50.830;12.082;2022-10-16T08:44:03;99400.94;;;21.96;54.37
11172;BME280;5642;50.830;12.082;2022-10-16T08:49:03;99437.84;;;22.36;54.24
11172;BME280;5642;50.830;12.082;2022-10-16T08:51:31;99443.50;;;22.53;54.29
11172;BME280;5642;50.830;12.082;2022-10-16T08:54:03;99461.13;;;22.78;54.16
11172;BME280;5642;50.830;12.082;2022-10-16T08:59:25;99456.09;;;22.96;54.40
11172;BME280;5642;50.830;12.082;2022-10-16T09:01:54;99396.41;;;22.75;53.75
11172;BME280;5642;50.830;12.082;2022-10-16T09:07:27;99482.28;;;23.45;53.83
11172;BME280;5642;50.830;12.082;2022-10-16T09:12:46;99496.56;;;23.66;53.97
11172;BME280;5642;50.830;12.082;2022-10-16T09:15:31;99436.50;;;23.38;53.51
11172;BME280;5642;50.830;12.082;2022-10-16T09:18:23;99443.44;;;23.41;53.61
11172;BME280;5642;50.830;12.082;2022-10-16T09:21:35;99515.69;;;23.83;53.44
11172;BME280;5642;50.830;12.082;2022-10-16T09:24:15;99459.78;;;23.59;53.51
11172;BME280;5642;50.830;12.082;2022-10-16T09:26:42;99512.66;;;23.87;53.65
11172;BME280;5642;50.830;12.082;2022-10-16T09:29:16;99505.19;;;23.91;53.59
11172;BME280;5642;50.830;12.082;2022-10-16T09:31:52;99516.75;;;23.91;53.24
11172;BME280;5642;50.830;12.082;2022-10-16T09:34:30;99477.72;;;23.68;53.44
11172;BME280;5642;50.830;12.082;2022-10-16T09:36:58;99515.91;;;23.91;53.59
11172;BME280;5642;50.830;12.082;2022-10-16T09:39:47;99496.59;;;23.87;53.27
11172;BME280;5642;50.830;12.082;2022-10-16T09:42:23;99499.19;;;23.98;53.49
11172;BME280;5642;50.830;12.082;2022-10-16T09:44:51;99491.06;;;24.00;53.29
11172;BME280;5642;50.830;12.082;2022-10-16T09:47:30;99470.41;;;23.91;53.31
11172;BME280;5642;50.830;12.082;2022-10-16T09:50:03;99533.81;;;24.32;53.24
11172;BME280;5642;50.830;12.082;2022-10-16T09:52:32;99536.66;;;24.40;53.04
11172;BME280;5642;50.830;12.082;2022-10-16T09:55:02;99505.19;;;24.32;52.95
11172;BME280;5642;50.830;12.082;2022-10-16T09:57:49;99527.44;;;24.53;53.04
11172;BME280;5642;50.830;12.082;2022-10-16T10:00:17;99508.13;;;24.50;52.96
11172;BME280;5642;50.830;12.082;2022-10-16T10:02:45;99485.72;;;24.51;52.91
11172;BME280;5642;50.830;12.082;2022-10-16T10:05:21;99500.72;;;24.63;52.62
11172;BME280;5642;50.830;12.082;2022-10-16T10:08:05;99474.78;;;24.64;52.59
11172;BME280;5642;50.830;12.082;2022-10-16T10:10:34;99548.38;;;25.00;52.83
11172;BME280;5642;50.830;12.082;2022-10-16T10:13:02;99494.94;;;24.68;52.68
11172;BME280;5642;50.830;12.082;2022-10-16T10:15:41;99489.44;;;24.69;52.43
11172;BME280;5642;50.830;12.082;2022-10-16T10:18:18;99526.16;;;24.88;52.20
11172;BME280;5642;50.830;12.082;2022-10-16T10:21:00;99515.13;;;24.72;52.34
11172;BME280;5642;50.830;12.082;2022-10-16T10:23:28;99541.06;;;24.81;52.28
11172;BME280;5642;50.830;12.082;2022-10-16T10:26:07;99545.66;;;24.90;52.46
11172;BME280;5642;50.830;12.082;2022-10-16T10:31:20;99540.41;;;24.88;52.18
11172;BME280;5642;50.830;12.082;2022-10-16T10:34:11;99556.25;;;24.91;52.30
11172;BME280;5642;50.830;12.082;2022-10-16T10:37:04;99488.53;;;24.49;52.14
11172;BME280;5642;50.830;12.082;2022-10-16T10:39:48;99538.88;;;24.86;52.20
11172;BME280;5642;50.830;12.082;2022-10-16T10:42:51;99532.78;;;24.84;52.14
11172;BME280;5642;50.830;12.082;2022-10-16T10:45:28;99552.22;;;25.07;52.35
11172;BME280;5642;50.830;12.082;2022-10-16T10:48:22;99545.06;;;25.26;52.24
11172;BME280;5642;50.830;12.082;2022-10-16T10:51:11;99540.88;;;25.43;52.08
11172;BME280;5642;50.830;12.082;2022-10-16T10:54:14;99542.16;;;25.58;52.10
11172;BME280;5642;50.830;12.082;2022-10-16T10:57:02;99540.63;;;25.65;51.77
11172;BME280;5642;50.830;12.082;2022-10-16T11:08:09;99532.56;;;25.94;51.83
11172;BME280;5642;50.830;12.082;2022-10-16T11:10:50;99485.25;;;25.74;51.85
11172;BME280;5642;50.830;12.082;2022-10-16T11:16:30;99509.25;;;26.04;51.30
11172;BME280;5642;50.830;12.082;2022-10-16T11:19:25;99484.25;;;25.94;51.44
11172;BME280;5642;50.830;12.082;2022-10-16T11:25:23;99488.09;;;25.92;51.36
11172;BME280;5642;50.830;12.082;2022-10-16T11:28:23;99553.44;;;26.20;51.26
11172;BME280;5642;50.830;12.082;2022-10-16T11:31:17;99559.81;;;26.19;51.08
11172;BME280;5642;50.830;12.082;2022-10-16T11:36:42;99531.28;;;25.98;51.18
11172;BME280;5642;50.830;12.082;2022-10-16T11:39:29;99570.69;;;26.17;50.99
11172;BME280;5642;50.830;12.082;2022-10-16T11:42:11;99539.22;;;25.90;50.61
11172;BME280;5642;50.830;12.082;2022-10-16T11:44:57;99578.19;;;26.04;50.99
11172;BME280;5642;50.830;12.082;2022-10-16T11:47:35;99580.19;;;25.92;51.02
11172;BME280;5642;50.830;12.082;2022-10-16T11:53:21;99514.59;;;25.27;50.79
11172;BME280;5642;50.830;12.082;2022-10-16T11:55:50;99539.41;;;25.29;51.16
11172;BME280;5642;50.830;12.082;2022-10-16T12:01:22;99590.56;;;25.57;50.78
11172;BME280;5642;50.830;12.082;2022-10-16T12:04:19;99542.38;;;25.26;50.82
11172;BME280;5642;50.830;12.082;2022-10-16T12:07:09;99558.03;;;25.31;50.89
11172;BME280;5642;50.830;12.082;2022-10-16T12:09:42;99568.38;;;25.35;51.08
11172;BME280;5642;50.830;12.082;2022-10-16T12:12:37;99587.16;;;25.45;50.68
11172;BME280;5642;50.830;12.082;2022-10-16T12:15:29;99591.97;;;25.42;51.12
11172;BME280;5642;50.830;12.082;2022-10-16T12:17:56;99539.78;;;25.06;50.96
11172;BME280;5642;50.830;12.082;2022-10-16T12:20:26;99596.34;;;25.43;50.85
11172;BME280;5642;50.830;12.082;2022-10-16T12:22:56;99593.66;;;25.52;50.72
11172;BME280;5642;50.830;12.082;2022-10-16T12:25:30;99574.75;;;25.54;50.90
11172;BME280;5642;50.830;12.082;2022-10-16T12:30:26;99588.34;;;25.62;50.87
11172;BME280;5642;50.830;12.082;2022-10-16T12:33:32;99603.03;;;25.67;50.62
11172;BME280;5642;50.830;12.082;2022-10-16T12:36:01;99542.66;;;25.23;50.74
11172;BME280;5642;50.830;12.082;2022-10-16T12:38:46;99572.03;;;25.34;50.53
11172;BME280;5642;50.830;12.082;2022-10-16T12:41:28;99554.34;;;25.22;50.55
11172;BME280;5642;50.830;12.082;2022-10-16T12:44:00;99593.66;;;25.43;50.76
11172;BME280;5642;50.830;12.082;2022-10-16T12:51:41;99525.97;;;25.01;50.42
11172;BME280;5642;50.830;12.082;2022-10-16T12:54:18;99540.66;;;25.16;50.50
11172;BME280;5642;50.830;12.082;2022-10-16T13:11:19;99595.69;;;25.79;50.15
11172;BME280;5642;50.830;12.082;2022-10-16T13:13:56;99601.63;;;25.83;50.19
11172;BME280;5642;50.830;12.082;2022-10-16T13:22:08;99575.19;;;25.59;50.06
11172;BME280;5642;50.830;12.082;2022-10-16T13:24:55;99607.66;;;25.56;49.79
11172;BME280;5642;50.830;12.082;2022-10-16T13:27:52;99606.06;;;25.44;49.93
11172;BME280;5642;50.830;12.082;2022-10-16T13:30:31;99607.19;;;25.41;50.23
11172;BME280;5642;50.830;12.082;2022-10-16T13:33:21;99619.47;;;25.44;49.87
11172;BME280;5642;50.830;12.082;2022-10-16T13:35:54;99611.56;;;25.42;49.88
11172;BME280;5642;50.830;12.082;2022-10-16T13:38:26;99596.00;;;25.26;49.72
11172;BME280;5642;50.830;12.082;2022-10-16T13:40:59;99584.56;;;25.15;49.61
11172;BME280;5642;50.830;12.082;2022-10-16T13:43:47;99566.97;;;24.91;49.83
11172;BME280;5642;50.830;12.082;2022-10-16T13:46:25;99593.47;;;24.94;49.61
11172;BME280;5642;50.830;12.082;2022-10-16T13:49:11;99587.34;;;24.83;49.93
11172;BME280;5642;50.830;12.082;2022-10-16T13:51:59;99624.78;;;24.94;49.53
11172;BME280;5642;50.830;12.082;2022-10-16T13:54:28;99587.63;;;24.59;49.65
11172;BME280;5642;50.830;12.082;2022-10-16T13:57:05;99618.03;;;24.69;49.57
11172;BME280;5642;50.830;12.082;2022-10-16T13:59:35;99588.50;;;24.39;49.79
11172;BME280;5642;50.830;12.082;2022-10-16T14:02:15;99597.06;;;24.33;50.04
11172;BME280;5642;50.830;12.082;2022-10-16T14:04:46;99631.69;;;24.45;49.87
11172;BME280;5642;50.830;12.082;2022-10-16T14:07:14;99614.63;;;24.26;50.07
11172;BME280;5642;50.830;12.082;2022-10-16T14:09:51;99605.06;;;24.12;49.68
11172;BME280;5642;50.830;12.082;2022-10-16T14:12:20;99634.84;;;24.18;49.93
11172;BME280;5642;50.830;12.082;2022-10-16T14:14:49;99603.66;;;23.97;49.63
11172;BME280;5642;50.830;12.082;2022-10-16T14:17:34;99626.25;;;24.04;49.73
11172;BME280;5642;50.830;12.082;2022-10-16T14:20:04;99591.56;;;23.81;49.59
11172;BME280;5642;50.830;12.082;2022-10-16T14:22:34;99599.88;;;23.78;49.87
11172;BME280;5642;50.830;12.082;2022-10-16T14:25:02;99596.34;;;23.78;49.64
11172;BME280;5642;50.830;12.082;2022-10-16T14:27:40;99610.28;;;23.81;49.47
11172;BME280;5642;50.830;12.082;2022-10-16T14:30:19;99641.25;;;23.95;49.49
11172;BME280;5642;50.830;12.082;2022-10-16T14:33:04;99653.94;;;23.93;49.78
11172;BME280;5642;50.830;12.082;2022-10-16T14:35:35;99643.00;;;23.85;49.67
11172;BME280;5642;50.830;12.082;2022-10-16T14:38:14;99655.41;;;23.86;49.91
11172;BME280;5642;50.830;12.082;2022-10-16T14:40:59;99640.00;;;23.78;49.97
11172;BME280;5642;50.830;12.082;2022-10-16T14:43:41;99646.31;;;23.77;49.80
11172;BME280;5642;50.830;12.082;2022-10-16T14:46:34;99636.75;;;23.64;49.71
11172;BME280;5642;50.830;12.082;2022-10-16T14:49:20;99624.13;;;23.55;49.69
11172;BME280;5642;50.830;12.082;2022-10-16T14:52:12;99643.44;;;23.58;49.85
11172;BME280;5642;50.830;12.082;2022-10-16T14:54:38;99613.78;;;23.39;49.90
11172;BME280;5642;50.830;12.082;2022-10-16T14:57:05;99579.22;;;23.15;49.71
11172;BME280;5642;50.830;12.082;2022-10-16T14:59:50;99668.22;;;23.60;49.74
11172;BME280;5642;50.830;12.082;2022-10-16T15:02:56;99595.47;;;23.12;49.83